Underwood, Washington
Current Conditions -  °F | °C
As of 3:59 PM on Wednesday 26 Nov 2014 (Local Time) from K4S2 Reporting Station
Clear Clear  
Wind Chill: 57°   Ceiling: Unl
Heat Index: 57°   Visibility: 10mi
Dew Point: 50°   Wind: 0mph
Humidity: 77%   Direction: NA
Pressure: 30.08"   Gusts: NA
Location:  45.73°N, 121.52°W
Report Text: K4S2 262359Z AUTO 00000KT 10SM CLR 14/10 A3008 RMK AO2 SLPNO
Loading
Personal Weather Stations






























Interactive Weather Map New forecast layout! Learn more

10-Day Weather Forecast

Advertisements
Track Severe Weather on mobile